Time;durP1;ratioP1;P1;durP2;ratioP2;P2;SDS_P1;SDS_P2;PMS_P1;PMS_P2;Temp;Humidity;BMP_temperature;BMP_pressure;BME280_temperature;BME280_humidity;BME280_pressure;Samples;Min_cycle;Max_cycle;Signal;HPM_P1;HPM_P2
2021/12/09 00:00:04;;;;;;;6.03;2.75;;;;;;;;;;4970279;28;20069;-70
2021/12/09 00:02:49;;;;;;;4.53;2.33;;;;;;;;;;4956217;28;20527;-71
2021/12/09 00:05:36;;;;;;;5.28;2.33;;;;;;;;;;4961558;28;20392;-71
2021/12/09 00:08:22;;;;;;;7.28;2.78;;;;;;;;;;4979226;28;20046;-71
2021/12/09 00:11:07;;;;;;;8.77;2.45;;;;;;;;;;4981755;28;20035;-67
2021/12/09 00:13:53;;;;;;;5.75;2.75;;;;;;;;;;4942104;28;20118;-64
2021/12/09 00:16:38;;;;;;;5.38;2.15;;;;;;;;;;4938047;28;20039;-64
2021/12/09 00:19:24;;;;;;;6.28;2.60;;;;;;;;;;4922640;28;20497;-64
2021/12/09 00:22:12;;;;;;;7.20;2.42;;;;;;;;;;4940139;28;20378;-68
2021/12/09 00:24:57;;;;;;;6.45;2.92;;;;;;;;;;4907590;29;20037;-65
2021/12/09 00:27:43;;;;;;;9.48;2.67;;;;;;;;;;4926550;28;20540;-69
2021/12/09 00:30:30;;;;;;;4.18;1.83;;;;;;;;;;4934154;28;20118;-68
2021/12/09 00:33:16;;;;;;;7.20;2.20;;;;;;;;;;4894734;29;20123;-74
2021/12/09 00:36:01;;;;;;;6.25;2.22;;;;;;;;;;4905153;29;20055;-71
2021/12/09 00:38:47;;;;;;;5.53;1.92;;;;;;;;;;4899810;29;20031;-70
2021/12/09 00:41:32;;;;;;;8.43;2.33;;;;;;;;;;4894305;29;20099;-71
2021/12/09 00:44:18;;;;;;;3.70;1.98;;;;;;;;;;4878156;29;20044;-72
2021/12/09 00:47:03;;;;;;;5.10;1.80;;;;;;;;;;4880716;29;20073;-71
2021/12/09 00:49:49;;;;;;;8.70;2.00;;;;;;;;;;4911158;29;20428;-72
2021/12/09 00:52:35;;;;;;;6.65;2.33;;;;;;;;;;4871983;29;20556;-71
2021/12/09 00:55:20;;;;;;;5.10;1.75;;;;;;;;;;4918787;28;20413;-71
2021/12/09 00:58:05;;;;;;;5.43;1.92;;;;;;;;;;4903011;29;20119;-70
2021/12/09 01:00:51;;;;;;;8.38;2.25;;;;;;;;;;4900797;28;20048;-72
2021/12/09 01:03:37;;;;;;;6.78;2.65;;;;;;;;;;4890024;29;20028;-71
2021/12/09 01:06:22;;;;;;;6.75;2.33;;;;;;;;;;4904351;29;20035;-68
2021/12/09 01:09:08;;;;;;;6.75;1.88;;;;;;;;;;4913140;28;20485;-67
2021/12/09 01:11:53;;;;;;;8.45;2.75;;;;;;;;;;4909385;28;20583;-69
2021/12/09 01:14:39;;;;;;;7.45;2.80;;;;;;;;;;4916169;28;20490;-68
2021/12/09 01:17:24;;;;;;;9.90;3.03;;;;;;;;;;4938237;28;20086;-67
2021/12/09 01:20:11;;;;;;;6.65;2.33;;;;;;;;;;4920850;28;20427;-68
2021/12/09 01:22:57;;;;;;;6.45;2.25;;;;;;;;;;4911417;28;20178;-68
2021/12/09 01:25:43;;;;;;;5.18;2.42;;;;;;;;;;4897203;29;20032;-73
2021/12/09 01:28:33;;;;;;;5.40;2.42;;;;;;;;;;4932690;28;20556;-77
2021/12/09 01:31:29;;;;;;;7.63;3.83;;;;;;;;;;4945469;28;20406;-75
2021/12/09 01:34:16;;;;;;;5.57;2.85;;;;;;;;;;4958132;28;20031;-74
2021/12/09 01:37:01;;;;;;;7.28;2.78;;;;;;;;;;4937519;28;20082;-72
2021/12/09 01:39:46;;;;;;;5.63;2.70;;;;;;;;;;4971640;28;20050;-73
2021/12/09 01:42:32;;;;;;;7.65;2.53;;;;;;;;;;4982421;28;20042;-71
2021/12/09 01:45:17;;;;;;;3.83;2.05;;;;;;;;;;4960939;28;20097;-72
2021/12/09 01:48:03;;;;;;;5.43;2.45;;;;;;;;;;4949162;28;20113;-72
2021/12/09 01:50:48;;;;;;;7.13;3.53;;;;;;;;;;4932116;28;20064;-72
2021/12/09 01:53:33;;;;;;;8.05;4.28;;;;;;;;;;4913878;29;20035;-72
2021/12/09 01:56:21;;;;;;;4.97;3.10;;;;;;;;;;4944786;28;20035;-72
2021/12/09 01:59:07;;;;;;;8.95;3.50;;;;;;;;;;4925904;29;20075;-71
2021/12/09 02:01:52;;;;;;;9.13;3.30;;;;;;;;;;4951855;28;20133;-67
2021/12/09 02:04:37;;;;;;;7.93;3.35;;;;;;;;;;4954770;28;20436;-71
2021/12/09 02:07:23;;;;;;;9.40;3.20;;;;;;;;;;4946047;28;20414;-70
2021/12/09 02:10:10;;;;;;;7.47;3.72;;;;;;;;;;4971794;28;20030;-70
2021/12/09 02:12:55;;;;;;;9.68;3.95;;;;;;;;;;4950132;28;20129;-70
2021/12/09 02:15:41;;;;;;;8.77;3.42;;;;;;;;;;4943303;28;20047;-71
2021/12/09 02:18:26;;;;;;;10.27;4.30;;;;;;;;;;4902501;29;20115;-67
2021/12/09 02:21:16;;;;;;;5.95;2.97;;;;;;;;;;4894774;28;20091;-72
2021/12/09 02:24:04;;;;;;;8.77;4.20;;;;;;;;;;4948828;28;20070;-73
2021/12/09 02:26:50;;;;;;;5.72;3.75;;;;;;;;;;4934364;29;20039;-70
2021/12/09 02:29:37;;;;;;;7.97;3.83;;;;;;;;;;4952655;28;20044;-71
2021/12/09 02:32:22;;;;;;;10.93;3.92;;;;;;;;;;4946955;28;20413;-72
2021/12/09 02:35:08;;;;;;;8.35;3.65;;;;;;;;;;4959506;28;20077;-75
2021/12/09 02:37:53;;;;;;;9.45;4.35;;;;;;;;;;4980207;28;20034;-67
2021/12/09 02:40:39;;;;;;;6.60;4.10;;;;;;;;;;4982411;28;20030;-71
2021/12/09 02:43:26;;;;;;;6.68;4.00;;;;;;;;;;4953117;28;20028;-71
2021/12/09 02:46:12;;;;;;;12.93;4.82;;;;;;;;;;4929769;28;20469;-72
2021/12/09 02:48:57;;;;;;;7.95;3.88;;;;;;;;;;4914141;29;20036;-73
2021/12/09 02:51:43;;;;;;;10.10;3.53;;;;;;;;;;4899571;29;20095;-73
2021/12/09 02:54:28;;;;;;;11.90;3.88;;;;;;;;;;4907980;29;20102;-72
2021/12/09 02:57:14;;;;;;;11.20;5.15;;;;;;;;;;4887567;29;20028;-71
2021/12/09 02:59:59;;;;;;;10.80;3.92;;;;;;;;;;4923317;28;20031;-67
2021/12/09 03:02:44;;;;;;;9.85;4.05;;;;;;;;;;4947799;28;20055;-68
2021/12/09 03:05:30;;;;;;;8.73;3.97;;;;;;;;;;4950564;28;20041;-69
2021/12/09 03:08:21;;;;;;;18.50;5.32;;;;;;;;;;4964354;28;20394;-67
2021/12/09 03:11:08;;;;;;;11.13;4.57;;;;;;;;;;4913275;29;20031;-68
2021/12/09 03:13:53;;;;;;;11.82;3.88;;;;;;;;;;4938012;29;20042;-71
2021/12/09 03:16:39;;;;;;;9.10;4.53;;;;;;;;;;4933293;28;20034;-68
2021/12/09 03:19:24;;;;;;;9.20;4.70;;;;;;;;;;4927904;28;20131;-65
2021/12/09 03:22:10;;;;;;;10.02;4.53;;;;;;;;;;4923437;29;20039;-68
2021/12/09 03:24:55;;;;;;;11.43;3.88;;;;;;;;;;4896033;29;20131;-69
2021/12/09 03:27:41;;;;;;;12.27;4.00;;;;;;;;;;4920728;28;20646;-66
2021/12/09 03:30:26;;;;;;;9.98;3.72;;;;;;;;;;4953736;28;20038;-68
2021/12/09 03:33:12;;;;;;;12.18;3.83;;;;;;;;;;4952691;28;20105;-71
2021/12/09 03:35:58;;;;;;;12.65;4.60;;;;;;;;;;4955150;28;20043;-71
2021/12/09 03:38:43;;;;;;;13.80;4.45;;;;;;;;;;4927681;29;20069;-73
2021/12/09 03:41:29;;;;;;;14.10;5.05;;;;;;;;;;4932231;28;20046;-71
2021/12/09 03:44:14;;;;;;;13.48;4.35;;;;;;;;;;4945727;29;20134;-71
2021/12/09 03:47:00;;;;;;;15.65;4.40;;;;;;;;;;4913395;28;20043;-70
2021/12/09 03:49:46;;;;;;;14.10;3.70;;;;;;;;;;4938615;28;20031;-70
2021/12/09 03:52:31;;;;;;;21.90;6.20;;;;;;;;;;4961949;28;20026;-70
2021/12/09 03:55:17;;;;;;;9.35;3.92;;;;;;;;;;4949725;28;20039;-68
2021/12/09 03:58:02;;;;;;;11.95;4.30;;;;;;;;;;4949199;28;20396;-67
2021/12/09 04:00:48;;;;;;;15.07;3.95;;;;;;;;;;4968262;28;20023;-67
2021/12/09 04:03:34;;;;;;;12.70;5.10;;;;;;;;;;4959106;28;20129;-69
2021/12/09 04:06:19;;;;;;;14.75;4.72;;;;;;;;;;4945606;28;20035;-68
2021/12/09 04:09:06;;;;;;;12.23;4.72;;;;;;;;;;4959910;28;20213;-71
2021/12/09 04:11:51;;;;;;;13.85;4.20;;;;;;;;;;4957597;28;21693;-71
2021/12/09 04:14:37;;;;;;;10.15;3.88;;;;;;;;;;4942839;28;20050;-72
2021/12/09 04:17:22;;;;;;;15.55;4.20;;;;;;;;;;4943959;28;20406;-73
2021/12/09 04:20:08;;;;;;;11.02;4.32;;;;;;;;;;4966706;28;20058;-71
2021/12/09 04:22:53;;;;;;;14.80;5.07;;;;;;;;;;4960552;28;22305;-70
2021/12/09 04:25:38;;;;;;;16.73;4.50;;;;;;;;;;4949433;28;20457;-71
2021/12/09 04:28:24;;;;;;;14.18;4.15;;;;;;;;;;4984639;28;20053;-67
2021/12/09 04:31:09;;;;;;;15.82;4.78;;;;;;;;;;4988144;28;20096;-63
2021/12/09 04:33:55;;;;;;;8.82;4.32;;;;;;;;;;4971990;28;20077;-65
2021/12/09 04:36:40;;;;;;;10.40;4.00;;;;;;;;;;4979681;28;20261;-68
2021/12/09 04:39:25;;;;;;;14.63;4.75;;;;;;;;;;4938171;28;20469;-65
2021/12/09 04:42:11;;;;;;;13.32;5.18;;;;;;;;;;4948039;28;20377;-64
2021/12/09 04:44:56;;;;;;;12.23;3.95;;;;;;;;;;4968506;28;20049;-65
2021/12/09 04:47:41;;;;;;;10.50;3.60;;;;;;;;;;4953879;28;20486;-69
2021/12/09 04:50:27;;;;;;;10.45;4.10;;;;;;;;;;4944408;28;20034;-64
2021/12/09 04:53:12;;;;;;;14.85;4.18;;;;;;;;;;4934322;28;20036;-65
2021/12/09 04:55:57;;;;;;;10.50;4.00;;;;;;;;;;4959906;28;20038;-65
2021/12/09 04:58:43;;;;;;;11.55;4.00;;;;;;;;;;4958461;28;20037;-66
2021/12/09 05:01:28;;;;;;;10.82;3.47;;;;;;;;;;4952497;28;20031;-64
2021/12/09 05:04:13;;;;;;;11.90;3.78;;;;;;;;;;4958160;28;20038;-67
2021/12/09 05:06:58;;;;;;;11.18;4.00;;;;;;;;;;4977612;28;20045;-71
2021/12/09 05:09:50;;;;;;;17.27;4.93;;;;;;;;;;4947943;28;20115;-73
2021/12/09 05:12:35;;;;;;;12.00;4.00;;;;;;;;;;4953573;28;20038;-73
2021/12/09 05:15:20;;;;;;;10.60;4.20;;;;;;;;;;4944075;28;20027;-73
2021/12/09 05:18:06;;;;;;;14.98;4.80;;;;;;;;;;4937481;28;20047;-72
2021/12/09 05:20:51;;;;;;;14.88;4.68;;;;;;;;;;4968230;28;20099;-71
2021/12/09 05:23:37;;;;;;;11.02;4.47;;;;;;;;;;4970240;28;20037;-68
2021/12/09 05:26:26;;;;;;;16.88;5.13;;;;;;;;;;4960109;28;20593;-63
2021/12/09 05:29:12;;;;;;;9.20;4.82;;;;;;;;;;4967891;28;20088;-65
2021/12/09 05:32:07;;;;;;;14.13;5.45;;;;;;;;;;4982227;28;20049;-64
2021/12/09 05:34:53;;;;;;;12.90;4.70;;;;;;;;;;4963898;28;20088;-64
2021/12/09 05:37:38;;;;;;;12.65;5.22;;;;;;;;;;4976339;28;20046;-63
2021/12/09 05:40:24;;;;;;;12.85;5.15;;;;;;;;;;4938220;28;20039;-67
2021/12/09 05:43:09;;;;;;;15.95;5.50;;;;;;;;;;4964299;28;20038;-73
2021/12/09 05:45:54;;;;;;;10.73;4.72;;;;;;;;;;4956435;28;20106;-73
2021/12/09 05:48:41;;;;;;;12.00;3.65;;;;;;;;;;4951360;28;20650;-72
2021/12/09 05:51:26;;;;;;;13.60;5.32;;;;;;;;;;4920929;28;20024;-73
2021/12/09 05:54:12;;;;;;;15.80;4.97;;;;;;;;;;4873057;29;20028;-72
2021/12/09 05:56:58;;;;;;;16.35;6.00;;;;;;;;;;4938079;28;20059;-74
2021/12/09 05:59:43;;;;;;;15.80;5.28;;;;;;;;;;4927840;28;20126;-73
2021/12/09 06:02:32;;;;;;;11.65;4.05;;;;;;;;;;4962957;28;20042;-69
2021/12/09 06:05:18;;;;;;;10.43;4.00;;;;;;;;;;4930426;28;20072;-67
2021/12/09 06:08:04;;;;;;;12.45;4.20;;;;;;;;;;4945899;28;20127;-68
2021/12/09 06:10:49;;;;;;;31.38;17.67;;;;;;;;;;4938613;28;20410;-67
2021/12/09 06:13:37;;;;;;;17.30;7.22;;;;;;;;;;4931486;28;20110;-68
2021/12/09 06:16:24;;;;;;;10.50;4.25;;;;;;;;;;4953844;28;20090;-67
2021/12/09 06:19:10;;;;;;;13.50;4.93;;;;;;;;;;4962270;28;20042;-71
2021/12/09 06:21:55;;;;;;;12.57;5.45;;;;;;;;;;4963952;28;20066;-71
2021/12/09 06:24:41;;;;;;;14.65;5.03;;;;;;;;;;4938567;28;20038;-69
2021/12/09 06:27:26;;;;;;;6.97;3.50;;;;;;;;;;4950510;28;20491;-68
2021/12/09 06:30:12;;;;;;;13.93;4.22;;;;;;;;;;4922463;28;20042;-70
2021/12/09 06:32:58;;;;;;;13.18;4.70;;;;;;;;;;4901478;28;20050;-69
2021/12/09 06:35:43;;;;;;;10.98;4.20;;;;;;;;;;4962711;28;20601;-74
2021/12/09 06:38:28;;;;;;;10.80;3.70;;;;;;;;;;4961726;28;20047;-73
2021/12/09 06:41:14;;;;;;;10.82;4.60;;;;;;;;;;4944993;28;20561;-66
2021/12/09 06:43:59;;;;;;;16.92;4.25;;;;;;;;;;4954579;28;20045;-66
2021/12/09 06:46:44;;;;;;;12.32;4.35;;;;;;;;;;4940520;28;20043;-68
2021/12/09 06:49:29;;;;;;;11.57;4.20;;;;;;;;;;4943198;28;20482;-67
2021/12/09 06:52:15;;;;;;;9.73;3.72;;;;;;;;;;4936933;28;20032;-66
2021/12/09 06:55:00;;;;;;;15.05;4.65;;;;;;;;;;4920146;28;20558;-60
2021/12/09 06:57:46;;;;;;;11.52;4.50;;;;;;;;;;4955477;28;20113;-69
2021/12/09 07:00:32;;;;;;;8.30;3.53;;;;;;;;;;4967616;28;20049;-65
2021/12/09 07:03:17;;;;;;;10.55;3.42;;;;;;;;;;4965419;28;20101;-65
2021/12/09 07:06:06;;;;;;;13.15;4.63;;;;;;;;;;4976361;28;20029;-65
2021/12/09 07:08:53;;;;;;;18.25;5.85;;;;;;;;;;4970238;28;20061;-63
2021/12/09 07:11:38;;;;;;;10.90;4.95;;;;;;;;;;4966293;28;20039;-66
2021/12/09 07:14:24;;;;;;;8.05;3.28;;;;;;;;;;4967781;28;20045;-66
2021/12/09 07:17:10;;;;;;;10.07;4.43;;;;;;;;;;4959781;28;20374;-69
2021/12/09 07:19:55;;;;;;;11.30;3.83;;;;;;;;;;4981923;28;20043;-68
2021/12/09 07:22:40;;;;;;;11.60;3.83;;;;;;;;;;4969269;28;20038;-66
2021/12/09 07:25:28;;;;;;;12.48;5.93;;;;;;;;;;4954412;28;20023;-70
2021/12/09 07:28:14;;;;;;;12.05;5.63;;;;;;;;;;4926175;28;20131;-68
2021/12/09 07:30:59;;;;;;;18.20;6.85;;;;;;;;;;4942792;28;20035;-69
2021/12/09 07:33:44;;;;;;;18.77;9.52;;;;;;;;;;4932401;28;20031;-66
2021/12/09 07:36:30;;;;;;;24.92;11.13;;;;;;;;;;4938331;28;20039;-66
2021/12/09 07:39:15;;;;;;;23.65;9.85;;;;;;;;;;4941701;28;20516;-67
2021/12/09 07:42:01;;;;;;;25.88;10.60;;;;;;;;;;4954534;28;20045;-67
2021/12/09 07:44:46;;;;;;;18.85;9.65;;;;;;;;;;4978052;28;20088;-66
2021/12/09 07:47:32;;;;;;;17.92;7.75;;;;;;;;;;4945080;28;20391;-65
2021/12/09 07:50:19;;;;;;;20.38;7.57;;;;;;;;;;4945578;28;20058;-65
2021/12/09 07:53:04;;;;;;;22.02;7.30;;;;;;;;;;4936523;28;20402;-63
2021/12/09 07:55:51;;;;;;;14.35;5.95;;;;;;;;;;4939035;28;20050;-66
2021/12/09 07:58:36;;;;;;;245.73;167.52;;;;;;;;;;4929977;28;20043;-63
2021/12/09 08:01:21;;;;;;;18.80;10.80;;;;;;;;;;4923291;28;20074;-65
2021/12/09 08:04:07;;;;;;;12.15;6.38;;;;;;;;;;4940738;28;20094;-66
2021/12/09 08:06:53;;;;;;;13.18;6.40;;;;;;;;;;4971330;28;20088;-67
2021/12/09 08:09:38;;;;;;;17.20;5.75;;;;;;;;;;4978241;28;20034;-66
2021/12/09 08:12:23;;;;;;;12.90;5.70;;;;;;;;;;4959391;28;20043;-68
2021/12/09 08:15:09;;;;;;;12.48;5.35;;;;;;;;;;4933202;28;20157;-69
2021/12/09 08:18:02;;;;;;;9.18;3.72;;;;;;;;;;4931376;28;20049;-69
2021/12/09 08:20:48;;;;;;;9.77;3.88;;;;;;;;;;4958787;28;20109;-68
2021/12/09 08:23:33;;;;;;;11.07;4.97;;;;;;;;;;4966254;28;20125;-70
2021/12/09 08:26:20;;;;;;;8.90;3.63;;;;;;;;;;4976897;28;20422;-68
2021/12/09 08:29:05;;;;;;;15.57;4.13;;;;;;;;;;4977608;28;20094;-61
2021/12/09 08:31:51;;;;;;;11.50;3.88;;;;;;;;;;4969542;28;20082;-63
2021/12/09 08:34:36;;;;;;;16.13;3.47;;;;;;;;;;4959102;28;20115;-67
2021/12/09 08:37:21;;;;;;;13.32;4.15;;;;;;;;;;4938551;28;20117;-67
2021/12/09 08:40:07;;;;;;;11.88;3.13;;;;;;;;;;4929399;28;20040;-68
2021/12/09 08:42:52;;;;;;;11.82;3.92;;;;;;;;;;4908151;28;20032;-64
2021/12/09 08:45:38;;;;;;;14.23;3.85;;;;;;;;;;4927731;28;20038;-68
2021/12/09 08:48:24;;;;;;;8.35;3.22;;;;;;;;;;4960791;28;20686;-69
2021/12/09 08:51:10;;;;;;;12.15;3.80;;;;;;;;;;4949680;28;20493;-70
2021/12/09 08:53:58;;;;;;;10.90;4.35;;;;;;;;;;4967675;28;20065;-73
2021/12/09 08:56:45;;;;;;;11.13;3.97;;;;;;;;;;4952533;28;20989;-71
2021/12/09 08:59:31;;;;;;;9.38;4.15;;;;;;;;;;4926615;28;20043;-71
2021/12/09 09:02:16;;;;;;;8.90;3.85;;;;;;;;;;4977535;28;20105;-69
2021/12/09 09:05:02;;;;;;;11.75;3.67;;;;;;;;;;4938058;28;20035;-68
2021/12/09 09:07:48;;;;;;;15.23;4.35;;;;;;;;;;4941818;28;20045;-64
2021/12/09 09:10:36;;;;;;;8.07;3.45;;;;;;;;;;4979796;28;20480;-62
2021/12/09 09:13:21;;;;;;;9.88;4.18;;;;;;;;;;4977346;28;20133;-65
2021/12/09 09:16:07;;;;;;;8.05;3.80;;;;;;;;;;4974139;28;20435;-63
2021/12/09 09:18:55;;;;;;;14.55;3.92;;;;;;;;;;4976156;28;20045;-62
2021/12/09 09:21:42;;;;;;;9.40;3.40;;;;;;;;;;4974516;28;20513;-69
2021/12/09 09:24:27;;;;;;;8.25;3.85;;;;;;;;;;4967062;28;20092;-70
2021/12/09 09:27:13;;;;;;;7.05;3.60;;;;;;;;;;4947547;28;20046;-68
2021/12/09 09:29:58;;;;;;;8.98;3.85;;;;;;;;;;4941098;28;20065;-67
2021/12/09 09:32:44;;;;;;;6.53;3.30;;;;;;;;;;4956579;28;20063;-64
2021/12/09 09:35:30;;;;;;;8.38;3.78;;;;;;;;;;4935697;28;20046;-67
2021/12/09 09:38:17;;;;;;;21.55;11.00;;;;;;;;;;4929403;28;20043;-67
2021/12/09 09:41:09;;;;;;;16.40;8.82;;;;;;;;;;4927979;28;20083;-66
2021/12/09 09:43:58;;;;;;;13.10;3.95;;;;;;;;;;4895337;28;20075;-64
2021/12/09 09:46:44;;;;;;;10.32;3.88;;;;;;;;;;4906665;28;20110;-63
2021/12/09 09:49:34;;;;;;;12.80;3.95;;;;;;;;;;4905948;29;20194;-65
2021/12/09 09:52:19;;;;;;;11.63;3.78;;;;;;;;;;4899300;28;20069;-64
2021/12/09 09:55:08;;;;;;;9.60;4.07;;;;;;;;;;4890312;29;20464;-62
2021/12/09 09:57:53;;;;;;;11.67;4.23;;;;;;;;;;4943263;28;20064;-64
2021/12/09 10:00:39;;;;;;;13.07;3.65;;;;;;;;;;4887638;29;20048;-67
2021/12/09 10:03:29;;;;;;;7.75;3.78;;;;;;;;;;4880605;29;20352;-65
2021/12/09 10:06:15;;;;;;;8.40;3.83;;;;;;;;;;4873409;29;20036;-68
2021/12/09 10:09:01;;;;;;;10.95;3.50;;;;;;;;;;4857084;29;20097;-67
2021/12/09 10:11:46;;;;;;;10.95;4.53;;;;;;;;;;4871165;28;20039;-70
2021/12/09 10:14:33;;;;;;;8.35;3.33;;;;;;;;;;4893434;29;20039;-69
2021/12/09 10:17:20;;;;;;;9.23;3.80;;;;;;;;;;4852554;29;20049;-72
2021/12/09 10:20:06;;;;;;;10.13;4.05;;;;;;;;;;4820028;29;20034;-68
2021/12/09 10:22:51;;;;;;;8.00;4.20;;;;;;;;;;4828238;29;20033;-69
2021/12/09 10:25:36;;;;;;;11.70;3.47;;;;;;;;;;4817862;29;20045;-70
2021/12/09 10:28:23;;;;;;;6.55;3.55;;;;;;;;;;4849089;29;20068;-71
2021/12/09 10:31:10;;;;;;;15.77;5.57;;;;;;;;;;4878968;29;20551;-70
2021/12/09 10:34:14;;;;;;;9.57;4.72;;;;;;;;;;4905194;29;20028;-69
2021/12/09 10:36:59;;;;;;;9.98;3.92;;;;;;;;;;4899866;29;20101;-71
2021/12/09 10:39:47;;;;;;;9.25;3.92;;;;;;;;;;4899805;29;20066;-69
2021/12/09 10:42:37;;;;;;;7.38;3.63;;;;;;;;;;4905671;29;20040;-70
2021/12/09 10:45:29;;;;;;;11.93;7.35;;;;;;;;;;4869407;29;20037;-71
2021/12/09 10:48:25;;;;;;;16.42;9.70;;;;;;;;;;4894477;29;20048;-69
2021/12/09 10:51:25;;;;;;;3.40;2.58;;;;;;;;;;4878572;29;20048;-72
2021/12/09 10:54:10;;;;;;;;;;;;;;;;;;4875330;29;20032;-70
2021/12/09 10:56:55;;;;;;;8.07;3.38;;;;;;;;;;4836449;29;20003;-70
2021/12/09 10:59:41;;;;;;;5.53;2.58;;;;;;;;;;4859474;29;20033;-71
2021/12/09 11:02:26;;;;;;;6.72;2.70;;;;;;;;;;4865392;29;20040;-69
2021/12/09 11:05:11;;;;;;;5.65;3.00;;;;;;;;;;4826595;29;20038;-64
2021/12/09 11:08:11;;;;;;;8.93;3.03;;;;;;;;;;4829966;29;20037;-66
2021/12/09 11:11:02;;;;;;;5.70;2.83;;;;;;;;;;4828130;29;20137;-66
2021/12/09 11:13:50;;;;;;;5.97;2.55;;;;;;;;;;4816998;29;20033;-72
2021/12/09 11:16:38;;;;;;;4.45;2.55;;;;;;;;;;4867321;29;20103;-69
2021/12/09 11:19:39;;;;;;;8.93;2.83;;;;;;;;;;4830897;29;20194;-69
2021/12/09 11:22:29;;;;;;;6.15;2.20;;;;;;;;;;4828557;29;20044;-68
2021/12/09 11:25:32;;;;;;;6.60;2.28;;;;;;;;;;4799645;29;20130;-67
2021/12/09 11:28:17;;;;;;;5.10;2.30;;;;;;;;;;4883382;29;20084;-67
2021/12/09 11:31:06;;;;;;;8.02;2.80;;;;;;;;;;4878578;29;20032;-67
2021/12/09 11:33:56;;;;;;;19.27;10.48;;;;;;;;;;4891806;29;20505;-67
2021/12/09 11:36:54;;;;;;;10.88;3.30;;;;;;;;;;4855554;29;20395;-69
2021/12/09 11:39:40;;;;;;;8.85;3.00;;;;;;;;;;4855299;29;20561;-68
2021/12/09 11:42:35;;;;;;;8.02;3.25;;;;;;;;;;4866331;29;20029;-69
2021/12/09 11:45:22;;;;;;;7.47;2.60;;;;;;;;;;4845555;29;20020;-67
2021/12/09 11:48:09;;;;;;;7.55;2.97;;;;;;;;;;4859445;29;20193;-64
2021/12/09 11:50:54;;;;;;;6.30;3.05;;;;;;;;;;4852692;29;20203;-73
2021/12/09 11:53:43;;;;;;;6.43;4.07;;;;;;;;;;4877467;29;20075;-69
2021/12/09 12:12:29;;;;;;;12.25;2.92;;;;;;;;;;4919980;28;20031;-65
2021/12/09 12:21:19;;;;;;;5.72;2.22;;;;;;;;;;4942620;28;20034;-67
2021/12/09 12:24:40;;;;;;;9.53;2.37;;;;;;;;;;4948361;28;20050;-64
2021/12/09 12:27:35;;;;;;;9.07;3.20;;;;;;;;;;4907148;28;20038;-70
2021/12/09 12:33:28;;;;;;;6.88;2.35;;;;;;;;;;4939169;28;20495;-68
2021/12/09 12:36:41;;;;;;;8.57;2.20;;;;;;;;;;4920130;28;20162;-66
2021/12/09 12:39:28;;;;;;;7.75;2.80;;;;;;;;;;4947204;28;20126;-68
2021/12/09 12:42:20;;;;;;;7.38;3.35;;;;;;;;;;4963969;28;20027;-67
2021/12/09 12:45:34;;;;;;;12.38;3.10;;;;;;;;;;4915780;28;20032;-69
2021/12/09 12:48:57;;;;;;;8.43;2.35;;;;;;;;;;4924574;28;20031;-68
2021/12/09 12:51:46;;;;;;;10.98;2.85;;;;;;;;;;4937742;28;20038;-68
2021/12/09 12:54:55;;;;;;;10.50;3.10;;;;;;;;;;4951089;28;20193;-69
2021/12/09 12:57:44;;;;;;;9.65;2.75;;;;;;;;;;4922647;28;20378;-68
2021/12/09 13:00:35;;;;;;;8.73;2.80;;;;;;;;;;4954190;28;20564;-68
2021/12/09 13:03:34;;;;;;;12.90;3.13;;;;;;;;;;4946620;28;20276;-64
2021/12/09 13:06:40;;;;;;;11.80;2.65;;;;;;;;;;4920933;28;20038;-71
2021/12/09 13:12:36;;;;;;;10.45;2.58;;;;;;;;;;4950495;28;20117;-74
2021/12/09 13:15:31;;;;;;;10.80;2.35;;;;;;;;;;4952814;28;20049;-72
2021/12/09 13:18:40;;;;;;;10.40;2.42;;;;;;;;;;4973171;28;20050;-76
2021/12/09 13:21:34;;;;;;;11.35;2.75;;;;;;;;;;4957622;28;20069;-71
2021/12/09 13:24:32;;;;;;;8.73;2.03;;;;;;;;;;4986599;28;20033;-68
2021/12/09 13:30:31;;;;;;;9.23;2.72;;;;;;;;;;4985887;28;20029;-66
2021/12/09 13:33:40;;;;;;;9.95;2.45;;;;;;;;;;4957308;28;20528;-70
2021/12/09 13:36:38;;;;;;;7.72;3.20;;;;;;;;;;4994234;28;20113;-70
2021/12/09 13:40:05;;;;;;;11.98;2.60;;;;;;;;;;4955946;28;20034;-68
2021/12/09 13:46:08;;;;;;;7.22;2.05;;;;;;;;;;4930484;28;20026;-70
2021/12/09 13:49:20;;;;;;;13.68;2.83;;;;;;;;;;4952861;28;20038;-75
2021/12/09 13:54:08;;;;;;;10.93;2.13;;;;;;;;;;4946248;28;20038;-72
2021/12/09 13:55:19;;;;;;;8.27;2.17;;;;;;;;;;4941748;28;20079;-74
2021/12/09 13:58:12;;;;;;;10.00;3.00;;;;;;;;;;4950164;28;20034;-73
2021/12/09 14:00:57;;;;;;;5.65;2.53;;;;;;;;;;4927238;28;20034;-69
2021/12/09 14:03:42;;;;;;;13.43;2.72;;;;;;;;;;4903316;28;20385;-73
2021/12/09 14:06:28;;;;;;;12.48;3.13;;;;;;;;;;4960674;28;20038;-73
2021/12/09 14:09:13;;;;;;;7.32;2.17;;;;;;;;;;4940188;28;20382;-75
2021/12/09 14:11:59;;;;;;;27.15;12.45;;;;;;;;;;4953812;28;20497;-73
2021/12/09 14:15:03;;;;;;;10.55;3.28;;;;;;;;;;4919093;28;20055;-74
2021/12/09 14:18:06;;;;;;;10.38;3.25;;;;;;;;;;4958933;28;20038;-68
2021/12/09 14:20:51;;;;;;;17.65;2.95;;;;;;;;;;4929366;28;20371;-65
2021/12/09 14:23:37;;;;;;;11.68;3.15;;;;;;;;;;4933679;28;20036;-65
2021/12/09 14:26:22;;;;;;;9.43;2.40;;;;;;;;;;4958451;28;20037;-66
2021/12/09 14:29:08;;;;;;;13.32;2.97;;;;;;;;;;4966073;28;20562;-65
2021/12/09 14:31:57;;;;;;;12.30;3.30;;;;;;;;;;4955283;28;20026;-66
2021/12/09 14:34:45;;;;;;;11.75;2.70;;;;;;;;;;4969371;28;20491;-70
2021/12/09 14:37:31;;;;;;;9.52;2.88;;;;;;;;;;4970508;28;20712;-69
2021/12/09 14:40:19;;;;;;;7.63;2.75;;;;;;;;;;4964509;28;20158;-70
2021/12/09 14:43:08;;;;;;;12.00;3.05;;;;;;;;;;4947776;28;20047;-66
2021/12/09 14:46:04;;;;;;;15.88;3.28;;;;;;;;;;4951033;28;20047;-59
2021/12/09 14:48:49;;;;;;;12.63;4.18;;;;;;;;;;4955388;28;20118;-63
2021/12/09 14:51:34;;;;;;;14.30;3.55;;;;;;;;;;4919383;29;20038;-60
2021/12/09 14:54:25;;;;;;;8.95;3.15;;;;;;;;;;4956706;28;20053;-69
2021/12/09 14:57:10;;;;;;;10.38;3.05;;;;;;;;;;4960641;28;20094;-67
2021/12/09 14:59:56;;;;;;;9.80;2.70;;;;;;;;;;4892853;29;20188;-66
2021/12/09 15:02:49;;;;;;;6.53;2.47;;;;;;;;;;4931328;28;20045;-67
2021/12/09 15:05:56;;;;;;;6.88;2.28;;;;;;;;;;4966195;28;20042;-70
2021/12/09 15:08:46;;;;;;;19.10;6.55;;;;;;;;;;4981499;28;20143;-68
2021/12/09 15:11:34;;;;;;;14.55;2.85;;;;;;;;;;4975026;28;20035;-68
2021/12/09 15:14:22;;;;;;;14.27;4.63;;;;;;;;;;4973870;28;20038;-66
2021/12/09 15:17:07;;;;;;;10.32;3.03;;;;;;;;;;4970687;28;20119;-68
2021/12/09 15:20:02;;;;;;;15.77;3.60;;;;;;;;;;4988263;28;20038;-67
2021/12/09 15:22:55;;;;;;;13.98;5.25;;;;;;;;;;4983056;28;20511;-67
2021/12/09 15:25:42;;;;;;;11.38;3.90;;;;;;;;;;4985598;28;20049;-67
2021/12/09 15:28:27;;;;;;;11.90;3.78;;;;;;;;;;4987785;28;20057;-65
2021/12/09 15:33:50;;;;;;;16.30;5.07;;;;;;;;;;4449182;22;20437;-69
2021/12/09 15:36:36;;;;;;;10.55;3.38;;;;;;;;;;4917489;28;20042;-69
2021/12/09 15:39:23;;;;;;;7.82;3.10;;;;;;;;;;4913096;28;20559;-68
2021/12/09 15:42:13;;;;;;;17.20;6.80;;;;;;;;;;4962837;28;20035;-69
2021/12/09 15:45:03;;;;;;;16.23;3.80;;;;;;;;;;4911707;28;20383;-70
2021/12/09 15:47:55;;;;;;;12.68;3.15;;;;;;;;;;4931934;28;20039;-69
2021/12/09 15:50:40;;;;;;;12.10;3.35;;;;;;;;;;4893414;29;20051;-68
2021/12/09 15:53:27;;;;;;;12.35;3.35;;;;;;;;;;4873297;29;20049;-69
2021/12/09 15:56:14;;;;;;;10.75;3.22;;;;;;;;;;4856218;29;20044;-70
2021/12/09 15:59:00;;;;;;;9.63;3.20;;;;;;;;;;4840987;29;20041;-68
2021/12/09 16:01:47;;;;;;;11.35;4.40;;;;;;;;;;4840719;29;20424;-70
2021/12/09 16:04:32;;;;;;;11.63;2.80;;;;;;;;;;4854960;29;20041;-73
2021/12/09 16:07:17;;;;;;;11.85;4.38;;;;;;;;;;4862308;29;20464;-72
2021/12/09 16:10:03;;;;;;;16.58;3.58;;;;;;;;;;4815811;29;20039;-74
2021/12/09 16:12:49;;;;;;;10.75;3.28;;;;;;;;;;4834382;29;20033;-73
2021/12/09 16:15:47;;;;;;;9.52;3.47;;;;;;;;;;4824264;29;20978;-70
2021/12/09 16:18:39;;;;;;;10.82;3.13;;;;;;;;;;4795416;29;20367;-71
2021/12/09 16:21:33;;;;;;;11.40;3.53;;;;;;;;;;4827823;29;20493;-71
2021/12/09 16:24:18;;;;;;;8.95;3.33;;;;;;;;;;4861694;29;20037;-75
2021/12/09 16:27:03;;;;;;;13.27;3.33;;;;;;;;;;4879055;29;20499;-69
2021/12/09 16:29:49;;;;;;;14.23;3.42;;;;;;;;;;4868763;29;20061;-69
2021/12/09 16:32:37;;;;;;;12.98;3.97;;;;;;;;;;4861908;29;20025;-67
2021/12/09 16:35:24;;;;;;;14.20;4.22;;;;;;;;;;4851909;29;20115;-63
2021/12/09 16:38:10;;;;;;;25.33;10.75;;;;;;;;;;4878569;29;20040;-68
2021/12/09 16:40:55;;;;;;;11.60;4.43;;;;;;;;;;4862510;29;20625;-66
2021/12/09 16:43:41;;;;;;;16.38;4.88;;;;;;;;;;4901998;29;20032;-68
2021/12/09 16:46:26;;;;;;;9.10;3.53;;;;;;;;;;4929640;28;20035;-69
2021/12/09 16:49:12;;;;;;;9.93;3.90;;;;;;;;;;4931311;29;20031;-71
2021/12/09 16:51:57;;;;;;;10.05;3.40;;;;;;;;;;4919439;29;20057;-69
2021/12/09 16:54:47;;;;;;;6.57;2.70;;;;;;;;;;4908197;28;20049;-69
2021/12/09 16:57:50;;;;;;;16.98;3.17;;;;;;;;;;4941929;28;20125;-69
2021/12/09 17:00:41;;;;;;;7.82;3.30;;;;;;;;;;4912637;28;20195;-66
2021/12/09 17:03:26;;;;;;;8.43;3.15;;;;;;;;;;4916296;29;20023;-67
2021/12/09 17:06:14;;;;;;;10.50;3.45;;;;;;;;;;4927022;29;20050;-70
2021/12/09 17:09:03;;;;;;;10.88;3.13;;;;;;;;;;4924232;28;20039;-68
2021/12/09 17:11:48;;;;;;;14.25;4.38;;;;;;;;;;4922316;28;20038;-72
2021/12/09 17:14:33;;;;;;;10.48;2.67;;;;;;;;;;4949448;28;20041;-70